LATEST ENTRIES
RECENT COMMENTS
RECENT TRACKBACK
ARCHIVES
CATEGORIES
OTHERS
SEARCH

スポンサーサイト
- / スポンサードリンク

一定期間更新がないため広告を表示しています

| - | - |
pagetop
夜間飛行始まりましたよ。
飛行機 / Dream Pilot
飛行機飛行機飛行機飛行機
今日の天候:
TAF CYQT 190139Z 190214 30005KT P6SM SKC
RMK NXT FCST BY 08Z=

WIND SW 7 km/h
GUSTS
RELATIVE HUMIDITY 86%
DEWPOINT -4°C
PRESSURE 102.57 kPa
VISIBILITY 24 km
CEILING unlimited

最高の飛行条件でしたよ。 だけど今日はサーキットトレーニングだったんですが、かなりBusyでした。8機サーキット訓練を行ってましたね。
だけど夜間飛行は最高ですよ。滑走路に輝くライト青、赤、黄、白色・・・
また上空から見る町並み(うーーーーー最高にきれいですよびっくり飛行機月


今日は書くこと無いので以上!!
Cheers

| comments(2) | trackbacks(0) |
pagetop
<< やっと飛行訓練再開しました!! | main | お久しぶりです!! カナダ情報 >>
スポンサーサイト
- / スポンサードリンク
| - | - |
pagetop
さっき気が付いたんですけど、文のでだしが「皆さんこんにちは」が多いですね。 ラッシャー木村が好きなんですか?
ショコラ (2004/11/24 4:33 AM)
最近全然更新してないみたいですね。 勉強で忙しいんですか?
ショコラ (2004/11/24 4:31 AM)









url: http://vivamexico.jugem.jp/trackback/25

11
--
1
2
3
4
5
6
7
8
9
10
11
12
13
14
15
16
17
18
19
20
21
22
23
24
25
26
27
28
29
30
--
>>
<<
--